Nearby METAR Reports

 

YCOM - Cooma Airport, NSW, AU
Distance from station: NE 158km
Updated: 25/02/2018 12:00
Overcast
Overcast
 Wind from S
Wind: S 20 km/h
Temperature: 12°C
Dew Point: 11°C
Humidity: 94%
Barometer: 1012 hPa
Clouds: Overcast
Visibility: 10 km
Cloud details: Mostly cloudy 152 m
Overcast 274 m
Overcast 457 m
2018/02/25 01:00 YCOM 250100Z AUTO 18011KT 9999 // BKN005 OVC009 OVC015 12/11 Q1012
YMAY - Albury Airport, NSW, AU
Distance from station: NNW 165km
Updated: 25/02/2018 12:00
Mostly cloudy
Mostly cloudy
 Wind from SE
Wind: SE 17 km/h
Temperature: 22°C
Dew Point: 13°C
Humidity: 57%
Barometer: 1005 hPa
Clouds: Mostly cloudy
Visibility: 10 km
Cloud details: Mostly cloudy 1036 m
2018/02/25 01:00 YMAY 250100Z AUTO 13009KT 9999 // BKN034 22/13 Q1005
 
YWGT - Wangaratta Airport, Victoria, AU
Distance from station: NW 172km
Updated: 25/02/2018 12:00
Overcast
Overcast
 Wind from E
Wind: E 4 km/h
Temperature: 23°C
Dew Point: 11°C
Humidity: 47%
Barometer: 1005 hPa
Clouds: Overcast
Visibility: 10 km
Cloud details: Overcast 1067 m
2018/02/25 01:00 YWGT 250100Z AUTO 10002KT 9999 // OVC035 23/11 Q1005
YMER - Merimbula Airport, NSW, AU
Distance from station: ENE 192km
Updated: 25/02/2018 12:00
Overcast
Overcast
 Wind from W
Wind: W 13 km/h
Temperature: 20°C
Dew Point: 13°C
Humidity: 64%
Barometer: 1010 hPa
Clouds: Overcast
Visibility: 10 km
Cloud details: Partly cloudy 1585 m
Overcast 2621 m
2018/02/25 01:00 YMER 250100Z AUTO 27007KT 9999 // SCT052 OVC086 20/13 Q1010
 
YSWG - Wagga Wagga Airport, NSW, AU
Distance from station: N 251km
Updated: 25/02/2018 12:00
Clear
Clear
 Wind from WSW
Wind: WSW 17 km/h
Temperature: 24°C
Dew Point: 14°C
Humidity: 54%
Barometer: 1006 hPa
Clouds: Clear
Visibility: 10 km
2018/02/25 01:00 YSWG 250100Z AUTO 25009KT 230V290 9999 // NCD 24/14 Q1006
YMEN - Essendon Airport, Victoria, AU
Distance from station: W 259km
Updated: 25/02/2018 12:00
Overcast
Overcast
 Wind from SSE
Wind: SSE 28 km/h
Temperature: 17°C
Dew Point: 6°C
Humidity: 49%
Barometer: 1012 hPa
Clouds: Overcast
Visibility: 10 km
Cloud details: Mostly cloudy 1189 m
Overcast 1402 m
2018/02/25 01:00 YMEN 250100Z AUTO 16015KT 9999 // BKN039 OVC046 17/06 Q1012
 
YSCB - Canberra Airport, ACT, AU
Distance from station: NNE 263km
Updated: 25/02/2018 12:00
Rain showers, Overcast
Rain showers, Overcast
 Wind from SSE
Wind: SSE 9 km/h
Temperature: 15°C
Dew Point: 15°C
Humidity: 100%
Barometer: 1010 hPa
Summary: Rain Showers
Clouds: Overcast
Visibility: 4 km
Cloud details: Partly cloudy 213 m
Mostly cloudy 488 m
Overcast 914 m
2018/02/25 01:00 YSCB 250100Z 15005KT 4000 SHRA SCT007 BKN016 OVC030 15/15 Q1010 FM0100 13010KT 9999 -SHRA SCT006 BKN022 FM0300 13015G25KT 9999 -SHRA SCT020 BKN035 INTER 0100/0130 4000 SHRA SCT006 BKN015
YMML - Melbourne Airport, Victoria, AU
Distance from station: W 266km
Updated: 25/02/2018 12:00
Mostly cloudy
Mostly cloudy
 Wind from S
Wind: S 35 km/h
Temperature: 16°C
Dew Point: 6°C
Humidity: 52%
Barometer: 1013 hPa
Clouds: Mostly cloudy
Visibility: 10 km
Cloud details: Partly cloudy 1311 m
Mostly cloudy 1463 m
2018/02/25 01:00 YMML 250100Z 17019KT 9999 SCT043 BKN048 16/06 Q1013